Time;durP1;ratioP1;P1;durP2;ratioP2;P2;SDS_P1;SDS_P2;PMS_P1;PMS_P2;Temp;Humidity;BMP_temperature;BMP_pressure;BME280_temperature;BME280_humidity;BME280_pressure;Samples;Min_cycle;Max_cycle;Signal;HPM_P1;HPM_P2
2022/06/08 00:02:00;;;;;;;;;;;;;;;;;;4995525;28;19918;-26
2022/06/08 00:04:26;;;;;;;;;;;;;;;;;;4995117;28;19934;-26
2022/06/08 00:06:52;;;;;;;;;;;;;;;;;;4995233;28;19980;-26
2022/06/08 00:09:18;;;;;;;;;;;;;;;;;;4995215;28;19909;-26
2022/06/08 00:11:44;;;;;;;;;;;;;;;;;;4995261;28;19913;-26
2022/06/08 00:14:10;;;;;;;;;;;;;;;;;;4995542;28;19910;-26
2022/06/08 00:16:36;;;;;;;;;;;;;;;;;;4995162;28;19918;-26
2022/06/08 00:19:02;;;;;;;;;;;;;;;;;;4995196;28;20316;-26
2022/06/08 00:21:28;;;;;;;;;;;;;;;;;;4995372;28;19937;-26
2022/06/08 00:23:55;;;;;;;;;;;;;;;;;;4995064;28;19910;-26
2022/06/08 00:26:21;;;;;;;;;;;;;;;;;;4995148;28;19925;-26
2022/06/08 00:28:47;;;;;;;;;;;;;;;;;;4995087;28;19933;-26
2022/06/08 00:31:13;;;;;;;;;;;;;;;;;;4995669;28;20326;-26
2022/06/08 00:33:39;;;;;;;;;;;;;;;;;;4994980;28;19925;-26
2022/06/08 00:36:05;;;;;;;;;;;;;;;;;;4995543;28;19914;-26
2022/06/08 00:38:31;;;;;;;;;;;;;;;;;;4995038;28;19948;-26
2022/06/08 00:40:57;;;;;;;;;;;;;;;;;;4995307;28;19910;-26
2022/06/08 00:43:23;;;;;;;;;;;;;;;;;;4994974;28;19914;-26
2022/06/08 00:45:49;;;;;;;;;;;;;;;;;;4994939;28;19914;-26
2022/06/08 00:48:15;;;;;;;;;;;;;;;;;;4994902;28;20234;-26
2022/06/08 00:50:41;;;;;;;;;;;;;;;;;;4994917;28;19909;-27
2022/06/08 00:53:07;;;;;;;;;;;;;;;;;;4995115;28;19921;-26
2022/06/08 00:55:33;;;;;;;;;;;;;;;;;;4995282;28;19942;-26
2022/06/08 00:57:59;;;;;;;;;;;;;;;;;;4998948;28;19909;-26
2022/06/08 01:00:25;;;;;;;;;;;;;;;;;;4998351;28;19914;-26
2022/06/08 01:02:51;;;;;;;;;;;;;;;;;;4998009;28;19917;-26
2022/06/08 01:05:17;;;;;;;;;;;;;;;;;;4998272;28;19990;-26
2022/06/08 01:07:43;;;;;;;;;;;;;;;;;;4998461;28;19917;-26
2022/06/08 01:10:09;;;;;;;;;;;;;;;;;;4998730;28;20349;-26
2022/06/08 01:12:35;;;;;;;;;;;;;;;;;;4998067;28;20016;-26
2022/06/08 01:15:01;;;;;;;;;;;;;;;;;;4998647;28;19926;-26
2022/06/08 01:17:27;;;;;;;;;;;;;;;;;;4997973;28;19917;-26
2022/06/08 01:19:53;;;;;;;;;;;;;;;;;;4998008;28;19910;-26
2022/06/08 01:22:19;;;;;;;;;;;;;;;;;;4997934;28;19921;-26
2022/06/08 01:24:45;;;;;;;;;;;;;;;;;;4998225;28;20359;-26
2022/06/08 01:27:11;;;;;;;;;;;;;;;;;;4997850;28;19925;-26
2022/06/08 01:29:37;;;;;;;;;;;;;;;;;;4997850;28;19914;-26
2022/06/08 01:32:03;;;;;;;;;;;;;;;;;;4997737;28;20329;-26
2022/06/08 01:34:29;;;;;;;;;;;;;;;;;;4997972;28;20368;-26
2022/06/08 01:36:55;;;;;;;;;;;;;;;;;;4998208;28;19954;-26
2022/06/08 01:39:21;;;;;;;;;;;;;;;;;;4997623;28;19914;-26
2022/06/08 01:41:47;;;;;;;;;;;;;;;;;;4997840;28;19910;-26
2022/06/08 01:44:13;;;;;;;;;;;;;;;;;;4996584;28;19945;-26
2022/06/08 01:46:39;;;;;;;;;;;;;;;;;;4997850;28;20007;-26
2022/06/08 01:49:05;;;;;;;;;;;;;;;;;;4997783;28;19914;-26
2022/06/08 01:51:31;;;;;;;;;;;;;;;;;;4997436;28;19909;-26
2022/06/08 01:53:58;;;;;;;;;;;;;;;;;;4997299;28;19914;-26
2022/06/08 01:56:23;;;;;;;;;;;;;;;;;;4997558;28;19975;-27
2022/06/08 01:58:49;;;;;;;;;;;;;;;;;;4997363;28;19913;-27
2022/06/08 02:01:15;;;;;;;;;;;;;;;;;;4996341;28;19913;-27
2022/06/08 02:03:41;;;;;;;;;;;;;;;;;;4996992;28;19921;-27
2022/06/08 02:06:07;;;;;;;;;;;;;;;;;;4997236;28;20226;-27
2022/06/08 02:08:33;;;;;;;;;;;;;;;;;;4997102;28;19953;-26
2022/06/08 02:10:59;;;;;;;;;;;;;;;;;;4997669;28;20325;-27
2022/06/08 02:13:25;;;;;;;;;;;;;;;;;;4997071;28;20363;-27
2022/06/08 02:15:51;;;;;;;;;;;;;;;;;;4996941;28;19918;-27
2022/06/08 02:18:17;;;;;;;;;;;;;;;;;;4996985;28;19914;-26
2022/06/08 02:20:43;;;;;;;;;;;;;;;;;;4996896;28;19920;-27
2022/06/08 02:23:09;;;;;;;;;;;;;;;;;;4996849;28;19957;-27
2022/06/08 02:25:36;;;;;;;;;;;;;;;;;;4997103;28;20266;-27
2022/06/08 02:28:03;;;;;;;;;;;;;;;;;;4996695;28;20322;-27
2022/06/08 02:30:29;;;;;;;;;;;;;;;;;;4996684;28;20004;-27
2022/06/08 02:35:39;;;;;;;;;;;;;;;;;;4996932;28;20098;-27
2022/06/08 02:38:06;;;;;;;;;;;;;;;;;;4997173;28;19914;-27
2022/06/08 02:40:32;;;;;;;;;;;;;;;;;;4996559;28;20213;-27
2022/06/08 02:42:58;;;;;;;;;;;;;;;;;;4996530;28;19914;-27
2022/06/08 02:45:24;;;;;;;;;;;;;;;;;;4996783;28;19956;-27
2022/06/08 02:47:50;;;;;;;;;;;;;;;;;;4996738;28;19914;-27
2022/06/08 02:50:16;;;;;;;;;;;;;;;;;;4996652;28;19972;-27
2022/06/08 02:52:42;;;;;;;;;;;;;;;;;;4996278;28;20276;-27
2022/06/08 02:55:08;;;;;;;;;;;;;;;;;;4996262;28;19963;-26
2022/06/08 02:57:34;;;;;;;;;;;;;;;;;;4996159;28;19922;-27
2022/06/08 03:00:01;;;;;;;;;;;;;;;;;;4996246;28;19916;-26
2022/06/08 03:02:27;;;;;;;;;;;;;;;;;;4996195;28;20425;-27
2022/06/08 03:04:53;;;;;;;;;;;;;;;;;;4996724;28;19961;-27
2022/06/08 03:07:19;;;;;;;;;;;;;;;;;;4996036;28;19984;-27
2022/06/08 03:09:45;;;;;;;;;;;;;;;;;;4996527;28;19916;-27
2022/06/08 03:12:11;;;;;;;;;;;;;;;;;;4995999;28;19961;-27
2022/06/08 03:14:37;;;;;;;;;;;;;;;;;;4995992;28;19918;-27
2022/06/08 03:17:03;;;;;;;;;;;;;;;;;;4995795;28;20057;-27
2022/06/08 03:19:29;;;;;;;;;;;;;;;;;;4995997;28;19922;-27
2022/06/08 03:21:55;;;;;;;;;;;;;;;;;;4995825;28;19941;-27
2022/06/08 03:24:21;;;;;;;;;;;;;;;;;;4996335;28;19910;-27
2022/06/08 03:26:47;;;;;;;;;;;;;;;;;;4995772;28;20357;-27
2022/06/08 03:29:13;;;;;;;;;;;;;;;;;;4996251;28;20056;-27
2022/06/08 03:31:39;;;;;;;;;;;;;;;;;;4995653;28;19917;-27
2022/06/08 03:34:05;;;;;;;;;;;;;;;;;;4995641;28;20380;-27
2022/06/08 03:36:31;;;;;;;;;;;;;;;;;;4995565;28;19918;-27
2022/06/08 03:38:57;;;;;;;;;;;;;;;;;;4995576;28;20264;-27
2022/06/08 03:41:23;;;;;;;;;;;;;;;;;;4995803;28;20300;-27
2022/06/08 03:43:49;;;;;;;;;;;;;;;;;;4995548;28;19914;-27
2022/06/08 03:46:15;;;;;;;;;;;;;;;;;;4995854;28;19910;-27
2022/06/08 03:48:41;;;;;;;;;;;;;;;;;;4995727;28;19914;-27
2022/06/08 03:51:07;;;;;;;;;;;;;;;;;;4995502;28;19917;-27
2022/06/08 03:53:34;;;;;;;;;;;;;;;;;;4995918;28;19913;-27
2022/06/08 03:56:00;;;;;;;;;;;;;;;;;;4995603;28;20365;-27
2022/06/08 03:58:26;;;;;;;;;;;;;;;;;;4995415;28;19921;-27
2022/06/08 04:00:52;;;;;;;;;;;;;;;;;;4995324;28;20349;-27
2022/06/08 04:03:18;;;;;;;;;;;;;;;;;;4995120;28;20364;-28
2022/06/08 04:05:44;;;;;;;;;;;;;;;;;;4995743;28;19916;-27
2022/06/08 04:08:10;;;;;;;;;;;;;;;;;;4995899;28;19914;-27
2022/06/08 04:10:36;;;;;;;;;;;;;;;;;;4994470;28;19909;-27
2022/06/08 04:13:02;;;;;;;;;;;;;;;;;;4995248;28;19914;-27
2022/06/08 04:15:43;;;;;;;;;;;;;;;;;;4995241;28;19909;-27
2022/06/08 04:18:09;;;;;;;;;;;;;;;;;;4995656;28;20004;-27
2022/06/08 04:20:35;;;;;;;;;;;;;;;;;;4995600;28;20249;-27
2022/06/08 04:23:01;;;;;;;;;;;;;;;;;;4995187;28;19921;-27
2022/06/08 04:25:27;;;;;;;;;;;;;;;;;;4995244;28;20360;-27
2022/06/08 04:27:53;;;;;;;;;;;;;;;;;;4995270;28;19914;-27
2022/06/08 04:30:19;;;;;;;;;;;;;;;;;;4995246;28;19909;-27
2022/06/08 04:32:45;;;;;;;;;;;;;;;;;;4998748;28;19914;-27
2022/06/08 04:35:11;;;;;;;;;;;;;;;;;;4999404;28;19910;-27
2022/06/08 04:37:37;;;;;;;;;;;;;;;;;;4998822;28;20345;-27
2022/06/08 04:40:03;;;;;;;;;;;;;;;;;;4999070;28;19936;-25
2022/06/08 04:42:29;;;;;;;;;;;;;;;;;;4998938;28;20392;-26
2022/06/08 04:44:55;;;;;;;;;;;;;;;;;;4998730;28;20280;-26
2022/06/08 04:47:21;;;;;;;;;;;;;;;;;;4998898;28;19968;-26
2022/06/08 04:49:47;;;;;;;;;;;;;;;;;;4998612;28;20242;-26
2022/06/08 04:52:13;;;;;;;;;;;;;;;;;;4999299;28;19913;-26
2022/06/08 04:54:39;;;;;;;;;;;;;;;;;;4998567;28;19914;-26
2022/06/08 04:57:05;;;;;;;;;;;;;;;;;;4998956;28;20024;-26
2022/06/08 04:59:31;;;;;;;;;;;;;;;;;;4998767;28;19953;-26
2022/06/08 05:01:57;;;;;;;;;;;;;;;;;;4998373;28;19913;-26
2022/06/08 05:04:23;;;;;;;;;;;;;;;;;;4998188;28;19921;-26
2022/06/08 05:06:49;;;;;;;;;;;;;;;;;;4998251;28;20384;-26
2022/06/08 05:09:15;;;;;;;;;;;;;;;;;;4998268;28;19914;-26
2022/06/08 05:11:41;;;;;;;;;;;;;;;;;;4997960;28;20004;-26
2022/06/08 05:14:07;;;;;;;;;;;;;;;;;;4998025;28;19910;-27
2022/06/08 05:16:33;;;;;;;;;;;;;;;;;;4998118;28;19925;-25
2022/06/08 05:18:59;;;;;;;;;;;;;;;;;;4998206;28;19924;-26
2022/06/08 05:21:25;;;;;;;;;;;;;;;;;;4998238;28;20257;-26
2022/06/08 05:23:53;;;;;;;;;;;;;;;;;;4997813;28;19972;-26
2022/06/08 05:26:19;;;;;;;;;;;;;;;;;;4998095;28;20268;-26
2022/06/08 05:28:45;;;;;;;;;;;;;;;;;;4998255;28;19921;-26
2022/06/08 05:31:11;;;;;;;;;;;;;;;;;;4998295;28;19914;-26
2022/06/08 05:33:37;;;;;;;;;;;;;;;;;;4997988;28;19924;-26
2022/06/08 05:36:02;;;;;;;;;;;;;;;;;;4997860;28;19922;-26
2022/06/08 05:38:28;;;;;;;;;;;;;;;;;;4997743;28;19920;-27
2022/06/08 05:40:54;;;;;;;;;;;;;;;;;;4997755;28;19914;-26
2022/06/08 05:43:20;;;;;;;;;;;;;;;;;;4997105;28;19925;-26
2022/06/08 05:45:46;;;;;;;;;;;;;;;;;;4997538;28;20334;-26
2022/06/08 05:48:13;;;;;;;;;;;;;;;;;;4997534;28;19928;-26
2022/06/08 05:50:40;;;;;;;;;;;;;;;;;;4997459;28;20001;-26
2022/06/08 05:53:06;;;;;;;;;;;;;;;;;;4997674;28;20061;-26
2022/06/08 05:55:32;;;;;;;;;;;;;;;;;;4997391;28;19925;-26
2022/06/08 05:57:58;;;;;;;;;;;;;;;;;;4997362;28;19914;-26
2022/06/08 06:00:24;;;;;;;;;;;;;;;;;;4996339;28;19910;-26
2022/06/08 06:02:50;;;;;;;;;;;;;;;;;;4996986;28;19988;-26
2022/06/08 06:05:16;;;;;;;;;;;;;;;;;;4996998;28;20357;-26
2022/06/08 06:07:42;;;;;;;;;;;;;;;;;;4997380;28;20290;-26
2022/06/08 06:10:08;;;;;;;;;;;;;;;;;;4997670;28;20296;-26
2022/06/08 06:12:35;;;;;;;;;;;;;;;;;;4997358;28;19909;-26
2022/06/08 06:15:01;;;;;;;;;;;;;;;;;;4997261;28;19914;-26
2022/06/08 06:17:27;;;;;;;;;;;;;;;;;;4996812;28;19914;-26
2022/06/08 06:19:53;;;;;;;;;;;;;;;;;;4996870;28;19921;-26
2022/06/08 06:22:19;;;;;;;;;;;;;;;;;;4997213;28;20349;-26
2022/06/08 06:24:45;;;;;;;;;;;;;;;;;;4997025;28;19920;-26
2022/06/08 06:27:11;;;;;;;;;;;;;;;;;;4997068;28;19996;-26
2022/06/08 06:29:37;;;;;;;;;;;;;;;;;;4996869;28;20369;-26
2022/06/08 06:32:03;;;;;;;;;;;;;;;;;;4996720;28;19914;-26
2022/06/08 06:34:29;;;;;;;;;;;;;;;;;;4996804;28;19921;-26
2022/06/08 06:36:55;;;;;;;;;;;;;;;;;;4996832;28;19918;-26
2022/06/08 06:39:21;;;;;;;;;;;;;;;;;;4996915;28;19972;-26
2022/06/08 06:41:47;;;;;;;;;;;;;;;;;;4996560;28;19917;-26
2022/06/08 06:44:13;;;;;;;;;;;;;;;;;;4996697;28;20230;-26
2022/06/08 06:46:39;;;;;;;;;;;;;;;;;;4996250;28;20333;-26
2022/06/08 06:49:05;;;;;;;;;;;;;;;;;;4996705;28;19969;-26
2022/06/08 06:51:31;;;;;;;;;;;;;;;;;;4996324;28;20300;-26
2022/06/08 06:53:57;;;;;;;;;;;;;;;;;;4995533;28;19917;-26
2022/06/08 06:56:23;;;;;;;;;;;;;;;;;;4996533;28;19941;-26
2022/06/08 06:58:49;;;;;;;;;;;;;;;;;;4996519;28;19913;-26
2022/06/08 07:01:15;;;;;;;;;;;;;;;;;;4996469;28;19936;-26
2022/06/08 07:03:41;;;;;;;;;;;;;;;;;;4995938;28;19926;-26
2022/06/08 07:06:07;;;;;;;;;;;;;;;;;;4996122;28;19960;-26
2022/06/08 07:08:33;;;;;;;;;;;;;;;;;;4996555;28;19920;-26
2022/06/08 07:13:44;;;;;;;;;;;;;;;;;;4995937;28;19933;-26
2022/06/08 07:16:10;;;;;;;;;;;;;;;;;;4996181;28;20017;-26
2022/06/08 07:18:36;;;;;;;;;;;;;;;;;;4996054;28;19941;-26
2022/06/08 07:21:02;;;;;;;;;;;;;;;;;;4996060;28;19924;-26
2022/06/08 07:23:28;;;;;;;;;;;;;;;;;;4995679;28;20341;-26
2022/06/08 07:25:54;;;;;;;;;;;;;;;;;;4995730;28;19920;-26
2022/06/08 07:28:20;;;;;;;;;;;;;;;;;;4996193;28;19914;-26
2022/06/08 07:30:47;;;;;;;;;;;;;;;;;;4995550;28;19920;-26
2022/06/08 07:33:13;;;;;;;;;;;;;;;;;;4995829;28;19914;-26
2022/06/08 07:35:39;;;;;;;;;;;;;;;;;;4995689;28;19910;-26
2022/06/08 07:38:05;;;;;;;;;;;;;;;;;;4995817;28;19984;-26
2022/06/08 07:40:31;;;;;;;;;;;;;;;;;;4995416;28;19918;-26
2022/06/08 07:42:57;;;;;;;;;;;;;;;;;;4995405;28;20001;-26
2022/06/08 07:45:23;;;;;;;;;;;;;;;;;;4996580;28;20249;-25
2022/06/08 07:50:33;;;;;;;;;;;;;;;;;;4995568;28;19929;-26
2022/06/08 07:53:00;;;;;;;;;;;;;;;;;;4995339;28;20385;-27
2022/06/08 07:55:26;;;;;;;;;;;;;;;;;;4995399;28;19914;-26
2022/06/08 07:57:53;;;;;;;;;;;;;;;;;;4995214;28;19980;-26
2022/06/08 08:00:19;;;;;;;;;;;;;;;;;;4995227;28;19920;-26
2022/06/08 08:02:45;;;;;;;;;;;;;;;;;;4994893;28;19980;-26
2022/06/08 08:05:11;;;;;;;;;;;;;;;;;;4996958;28;19918;-26
2022/06/08 08:07:37;;;;;;;;;;;;;;;;;;4999376;28;19914;-26
2022/06/08 08:10:03;;;;;;;;;;;;;;;;;;4999241;28;19976;-26
2022/06/08 08:12:29;;;;;;;;;;;;;;;;;;4999191;28;19936;-26
2022/06/08 08:14:55;;;;;;;;;;;;;;;;;;4999321;28;20390;-26
2022/06/08 08:17:21;;;;;;;;;;;;;;;;;;4999760;28;19914;-26
2022/06/08 08:19:47;;;;;;;;;;;;;;;;;;4999159;28;19917;-26
2022/06/08 08:22:15;;;;;;;;;;;;;;;;;;4999194;28;19921;-26
2022/06/08 08:24:41;;;;;;;;;;;;;;;;;;4999322;28;19917;-25
2022/06/08 08:27:07;;;;;;;;;;;;;;;;;;4999092;28;19925;-26
2022/06/08 08:29:33;;;;;;;;;;;;;;;;;;4999039;28;19921;-26
2022/06/08 08:32:01;;;;;;;;;;;;;;;;;;4999338;28;19913;-26
2022/06/08 08:34:27;;;;;;;;;;;;;;;;;;4999495;28;19972;-26
2022/06/08 08:36:53;;;;;;;;;;;;;;;;;;4999087;28;19914;-26
2022/06/08 08:39:20;;;;;;;;;;;;;;;;;;4998722;28;20238;-26
2022/06/08 08:44:30;;;;;;;;;;;;;;;;;;4999133;28;19956;-26
2022/06/08 08:46:56;;;;;;;;;;;;;;;;;;4998638;28;19914;-26
2022/06/08 08:49:23;;;;;;;;;;;;;;;;;;4999431;28;19924;-26
2022/06/08 08:51:49;;;;;;;;;;;;;;;;;;4997586;28;19976;-26
2022/06/08 08:54:15;;;;;;;;;;;;;;;;;;4999029;28;19937;-26
2022/06/08 08:56:42;;;;;;;;;;;;;;;;;;4998451;28;19913;-26
2022/06/08 08:59:09;;;;;;;;;;;;;;;;;;4998831;28;20226;-26
2022/06/08 09:01:35;;;;;;;;;;;;;;;;;;4998523;28;19924;-26
2022/06/08 09:04:01;;;;;;;;;;;;;;;;;;4998184;28;19932;-26
2022/06/08 09:06:27;;;;;;;;;;;;;;;;;;4998958;28;19937;-26
2022/06/08 09:08:53;;;;;;;;;;;;;;;;;;4998265;28;20340;-26
2022/06/08 09:11:19;;;;;;;;;;;;;;;;;;4998271;28;19910;-26
2022/06/08 09:13:45;;;;;;;;;;;;;;;;;;4998165;28;19914;-26
2022/06/08 09:16:11;;;;;;;;;;;;;;;;;;4998105;28;20306;-26
2022/06/08 09:18:39;;;;;;;;;;;;;;;;;;4997862;28;19946;-25
2022/06/08 09:21:05;;;;;;;;;;;;;;;;;;4997980;28;19937;-25
2022/06/08 09:23:31;;;;;;;;;;;;;;;;;;4997897;28;19910;-26
2022/06/08 09:25:57;;;;;;;;;;;;;;;;;;4997958;28;19982;-27
2022/06/08 09:28:23;;;;;;;;;;;;;;;;;;4997851;28;19920;-26
2022/06/08 09:30:49;;;;;;;;;;;;;;;;;;4997736;28;19925;-26
2022/06/08 09:33:17;;;;;;;;;;;;;;;;;;4997676;28;20337;-26
2022/06/08 09:35:43;;;;;;;;;;;;;;;;;;4997936;28;20254;-27
2022/06/08 09:38:09;;;;;;;;;;;;;;;;;;4997688;28;19910;-25
2022/06/08 09:40:38;;;;;;;;;;;;;;;;;;4998207;28;19920;-27
2022/06/08 09:43:04;;;;;;;;;;;;;;;;;;4997454;28;19956;-26
2022/06/08 09:45:30;;;;;;;;;;;;;;;;;;4997561;28;19914;-26
2022/06/08 09:53:25;;;;;;;;;;;;;;;;;;4997399;28;20396;-26
2022/06/08 09:55:53;;;;;;;;;;;;;;;;;;4997388;28;19909;-26
2022/06/08 09:58:20;;;;;;;;;;;;;;;;;;4997379;28;19918;-26
2022/06/08 10:00:46;;;;;;;;;;;;;;;;;;4997612;28;19914;-26
2022/06/08 10:03:12;;;;;;;;;;;;;;;;;;4996123;28;20239;-27
2022/06/08 10:05:38;;;;;;;;;;;;;;;;;;4997606;28;20292;-26
2022/06/08 10:08:04;;;;;;;;;;;;;;;;;;4997692;28;19925;-26
2022/06/08 10:10:30;;;;;;;;;;;;;;;;;;4997239;28;20286;-26
2022/06/08 10:12:58;;;;;;;;;;;;;;;;;;4997553;28;19914;-26
2022/06/08 10:15:24;;;;;;;;;;;;;;;;;;4997313;28;20336;-26
2022/06/08 10:17:50;;;;;;;;;;;;;;;;;;4996943;28;19918;-25
2022/06/08 10:20:16;;;;;;;;;;;;;;;;;;4997254;28;19910;-27
2022/06/08 10:22:42;;;;;;;;;;;;;;;;;;4997352;28;19917;-27
2022/06/08 10:25:08;;;;;;;;;;;;;;;;;;4997430;28;19920;-27
2022/06/08 10:27:34;;;;;;;;;;;;;;;;;;4997160;28;19924;-27
2022/06/08 10:30:00;;;;;;;;;;;;;;;;;;4996112;28;19937;-27
2022/06/08 10:32:26;;;;;;;;;;;;;;;;;;4996744;28;19910;-27
2022/06/08 10:34:54;;;;;;;;;;;;;;;;;;4997626;28;19917;-27
2022/06/08 10:37:22;;;;;;;;;;;;;;;;;;4996629;28;19918;-27
2022/06/08 10:39:48;;;;;;;;;;;;;;;;;;4996960;28;20296;-27
2022/06/08 10:44:59;;;;;;;;;;;;;;;;;;4996718;28;19937;-27
2022/06/08 10:47:25;;;;;;;;;;;;;;;;;;4996781;28;19914;-27
2022/06/08 10:49:51;;;;;;;;;;;;;;;;;;4997548;28;19910;-27
2022/06/08 10:52:17;;;;;;;;;;;;;;;;;;4996319;28;20028;-27
2022/06/08 10:54:58;;;;;;;;;;;;;;;;;;4996224;28;20007;-27
2022/06/08 10:57:24;;;;;;;;;;;;;;;;;;4996241;28;19918;-27
2022/06/08 10:59:50;;;;;;;;;;;;;;;;;;4996195;28;19931;-27
2022/06/08 11:02:16;;;;;;;;;;;;;;;;;;4996045;28;19910;-27
2022/06/08 11:04:43;;;;;;;;;;;;;;;;;;4996200;28;19924;-26
2022/06/08 11:07:10;;;;;;;;;;;;;;;;;;4996379;28;20257;-27
2022/06/08 11:09:36;;;;;;;;;;;;;;;;;;4996088;28;20372;-27
2022/06/08 11:12:04;;;;;;;;;;;;;;;;;;4996526;28;19922;-27
2022/06/08 11:14:30;;;;;;;;;;;;;;;;;;4996288;28;19949;-27
2022/06/08 11:16:56;;;;;;;;;;;;;;;;;;4996216;28;20356;-27
2022/06/08 11:19:22;;;;;;;;;;;;;;;;;;4995995;28;19972;-26
2022/06/08 11:21:48;;;;;;;;;;;;;;;;;;4995693;28;19914;-27
2022/06/08 11:24:14;;;;;;;;;;;;;;;;;;4995730;28;19936;-27
2022/06/08 11:26:40;;;;;;;;;;;;;;;;;;4995733;28;19914;-27
2022/06/08 11:29:06;;;;;;;;;;;;;;;;;;4996217;28;19913;-27
2022/06/08 11:31:32;;;;;;;;;;;;;;;;;;4995664;28;19917;-27
2022/06/08 11:33:59;;;;;;;;;;;;;;;;;;4995725;28;19928;-27
2022/06/08 11:36:25;;;;;;;;;;;;;;;;;;4996153;28;19917;-27
2022/06/08 11:38:51;;;;;;;;;;;;;;;;;;4995551;28;19921;-27
2022/06/08 11:41:17;;;;;;;;;;;;;;;;;;4995117;28;20260;-27
2022/06/08 11:43:43;;;;;;;;;;;;;;;;;;4995527;28;20009;-26
2022/06/08 11:46:10;;;;;;;;;;;;;;;;;;4995833;28;19914;-27
2022/06/08 11:48:37;;;;;;;;;;;;;;;;;;4995612;28;19909;-26
2022/06/08 11:51:03;;;;;;;;;;;;;;;;;;4995492;28;19918;-27
2022/06/08 11:53:29;;;;;;;;;;;;;;;;;;4995451;28;19976;-27
2022/06/08 11:55:56;;;;;;;;;;;;;;;;;;4995366;28;19913;-27
2022/06/08 11:58:22;;;;;;;;;;;;;;;;;;4995306;28;19925;-27
2022/06/08 12:00:53;;;;;;;;;;;;;;;;;;4995437;28;19922;-27
2022/06/08 12:03:19;;;;;;;;;;;;;;;;;;4995732;28;19961;-27
2022/06/08 12:05:51;;;;;;;;;;;;;;;;;;4995714;28;19910;-27
2022/06/08 12:08:18;;;;;;;;;;;;;;;;;;4995632;28;20319;-27
2022/06/08 12:10:44;;;;;;;;;;;;;;;;;;4995859;28;20233;-27
2022/06/08 12:13:10;;;;;;;;;;;;;;;;;;4994364;28;19914;-27
2022/06/08 12:15:36;;;;;;;;;;;;;;;;;;4995407;28;19917;-27
2022/06/08 12:18:02;;;;;;;;;;;;;;;;;;4995209;28;20411;-27
2022/06/08 12:20:28;;;;;;;;;;;;;;;;;;4995343;28;19913;-27
2022/06/08 12:22:54;;;;;;;;;;;;;;;;;;4995277;28;19975;-27
2022/06/08 12:25:21;;;;;;;;;;;;;;;;;;4995887;28;19914;-27
2022/06/08 12:27:47;;;;;;;;;;;;;;;;;;4995182;28;19917;-27
2022/06/08 12:30:13;;;;;;;;;;;;;;;;;;4995098;28;19914;-27
2022/06/08 12:32:40;;;;;;;;;;;;;;;;;;4995149;28;20009;-26
2022/06/08 12:35:06;;;;;;;;;;;;;;;;;;4995093;28;19914;-26
2022/06/08 12:37:33;;;;;;;;;;;;;;;;;;4994928;28;20012;-26
2022/06/08 12:39:59;;;;;;;;;;;;;;;;;;4994976;28;19930;-26
2022/06/08 12:42:25;;;;;;;;;;;;;;;;;;4994970;28;19914;-26
2022/06/08 12:44:51;;;;;;;;;;;;;;;;;;4995029;28;20261;-26
2022/06/08 12:47:17;;;;;;;;;;;;;;;;;;4995375;28;20008;-26
2022/06/08 12:49:43;;;;;;;;;;;;;;;;;;4994818;28;20356;-26
2022/06/08 12:52:09;;;;;;;;;;;;;;;;;;4996301;28;19920;-26
2022/06/08 12:54:35;;;;;;;;;;;;;;;;;;4998380;28;19997;-26
2022/06/08 12:57:01;;;;;;;;;;;;;;;;;;4998853;28;20256;-27
2022/06/08 12:59:27;;;;;;;;;;;;;;;;;;4998272;28;19918;-26
2022/06/08 13:01:53;;;;;;;;;;;;;;;;;;4998506;28;19913;-26
2022/06/08 13:04:19;;;;;;;;;;;;;;;;;;4998097;28;20280;-26
2022/06/08 13:06:45;;;;;;;;;;;;;;;;;;4998880;28;19918;-26
2022/06/08 13:09:11;;;;;;;;;;;;;;;;;;4998206;28;20401;-26
2022/06/08 13:11:37;;;;;;;;;;;;;;;;;;4998432;28;19914;-26
2022/06/08 13:14:04;;;;;;;;;;;;;;;;;;4998249;28;19921;-25
2022/06/08 13:16:30;;;;;;;;;;;;;;;;;;4998108;28;19928;-27
2022/06/08 13:18:56;;;;;;;;;;;;;;;;;;4998046;28;19913;-26
2022/06/08 13:21:22;;;;;;;;;;;;;;;;;;4998554;28;19917;-26
2022/06/08 13:23:48;;;;;;;;;;;;;;;;;;4998000;28;19957;-26
2022/06/08 13:26:14;;;;;;;;;;;;;;;;;;4998012;28;19949;-26
2022/06/08 13:28:40;;;;;;;;;;;;;;;;;;4998018;28;19933;-26
2022/06/08 13:31:09;;;;;;;;;;;;;;;;;;4998007;28;20328;-26
2022/06/08 13:36:20;;;;;;;;;;;;;;;;;;4998161;28;19976;-26
2022/06/08 13:38:46;;;;;;;;;;;;;;;;;;4997720;28;19914;-26
2022/06/08 13:41:12;;;;;;;;;;;;;;;;;;4998434;28;19910;-26
2022/06/08 13:43:38;;;;;;;;;;;;;;;;;;4996739;28;19914;-26
2022/06/08 13:46:04;;;;;;;;;;;;;;;;;;4998236;28;19914;-26
2022/06/08 13:48:30;;;;;;;;;;;;;;;;;;4997562;28;19936;-26
2022/06/08 13:50:58;;;;;;;;;;;;;;;;;;4997415;28;19910;-26
2022/06/08 13:53:26;;;;;;;;;;;;;;;;;;4997324;28;20049;-26
2022/06/08 13:55:53;;;;;;;;;;;;;;;;;;4997712;28;20330;-26
2022/06/08 13:58:19;;;;;;;;;;;;;;;;;;4997431;28;19913;-26
2022/06/08 14:00:45;;;;;;;;;;;;;;;;;;4997428;28;19918;-26
2022/06/08 14:03:11;;;;;;;;;;;;;;;;;;4996710;28;19932;-26
2022/06/08 14:13:51;;;;;;;;;;;;;;;;;;4997077;28;19964;-26
2022/06/08 14:16:17;;;;;;;;;;;;;;;;;;4997567;28;20236;-26
2022/06/08 14:18:43;;;;;;;;;;;;;;;;;;4997012;28;19924;-26
2022/06/08 14:21:09;;;;;;;;;;;;;;;;;;4996966;28;20005;-26
2022/06/08 14:23:35;;;;;;;;;;;;;;;;;;4997152;28;19957;-26
2022/06/08 14:26:03;;;;;;;;;;;;;;;;;;4997370;28;19953;-26
2022/06/08 14:28:29;;;;;;;;;;;;;;;;;;4996910;28;19920;-26
2022/06/08 14:30:55;;;;;;;;;;;;;;;;;;4997531;28;19910;-26
2022/06/08 14:33:21;;;;;;;;;;;;;;;;;;4996893;28;19914;-27
2022/06/08 14:35:48;;;;;;;;;;;;;;;;;;4997609;28;19910;-26
2022/06/08 14:38:14;;;;;;;;;;;;;;;;;;4996927;28;19921;-27
2022/06/08 14:40:41;;;;;;;;;;;;;;;;;;4996833;28;19925;-26
2022/06/08 14:43:07;;;;;;;;;;;;;;;;;;4996505;28;20056;-26
2022/06/08 14:45:33;;;;;;;;;;;;;;;;;;4996625;28;19987;-26
2022/06/08 14:47:59;;;;;;;;;;;;;;;;;;4996542;28;19914;-26
2022/06/08 14:50:26;;;;;;;;;;;;;;;;;;4997016;28;19909;-26
2022/06/08 14:52:52;;;;;;;;;;;;;;;;;;4996857;28;19984;-27
2022/06/08 14:58:02;;;;;;;;;;;;;;;;;;4996313;28;19928;-26
2022/06/08 15:00:29;;;;;;;;;;;;;;;;;;4996272;28;19910;-26
2022/06/08 15:02:55;;;;;;;;;;;;;;;;;;4996405;28;19922;-27
2022/06/08 15:05:21;;;;;;;;;;;;;;;;;;4996423;28;20250;-27
2022/06/08 15:07:50;;;;;;;;;;;;;;;;;;4996721;28;19914;-26
2022/06/08 15:10:16;;;;;;;;;;;;;;;;;;4996106;28;19910;-26
2022/06/08 15:12:43;;;;;;;;;;;;;;;;;;4996014;28;19913;-26
2022/06/08 15:15:09;;;;;;;;;;;;;;;;;;4996099;28;19918;-26
2022/06/08 15:17:36;;;;;;;;;;;;;;;;;;4995991;28;19918;-26
2022/06/08 15:20:02;;;;;;;;;;;;;;;;;;4996010;28;19914;-26
2022/06/08 15:22:28;;;;;;;;;;;;;;;;;;4996495;28;19925;-26
2022/06/08 15:24:54;;;;;;;;;;;;;;;;;;4996538;28;19937;-26
2022/06/08 15:27:20;;;;;;;;;;;;;;;;;;4996529;28;19918;-26
2022/06/08 15:29:46;;;;;;;;;;;;;;;;;;4996117;28;19914;-26
2022/06/08 15:32:12;;;;;;;;;;;;;;;;;;4995688;28;20253;-26
2022/06/08 15:34:38;;;;;;;;;;;;;;;;;;4995768;28;19918;-26
2022/06/08 15:37:04;;;;;;;;;;;;;;;;;;4995670;28;19914;-27
2022/06/08 15:39:30;;;;;;;;;;;;;;;;;;4995684;28;19920;-27
2022/06/08 15:41:56;;;;;;;;;;;;;;;;;;4996181;28;20313;-27
2022/06/08 15:44:22;;;;;;;;;;;;;;;;;;4995622;28;19918;-26
2022/06/08 15:46:48;;;;;;;;;;;;;;;;;;4995571;28;20009;-26
2022/06/08 15:49:14;;;;;;;;;;;;;;;;;;4995556;28;19941;-26
2022/06/08 15:51:40;;;;;;;;;;;;;;;;;;4995466;28;19921;-26
2022/06/08 15:54:06;;;;;;;;;;;;;;;;;;4995497;28;20020;-26
2022/06/08 15:56:32;;;;;;;;;;;;;;;;;;4995409;28;19929;-26
2022/06/08 15:58:59;;;;;;;;;;;;;;;;;;4994501;28;19944;-26
2022/06/08 16:01:25;;;;;;;;;;;;;;;;;;4995429;28;19909;-27
2022/06/08 16:03:52;;;;;;;;;;;;;;;;;;4995068;28;19972;-26
2022/06/08 16:06:18;;;;;;;;;;;;;;;;;;4995383;28;19913;-26
2022/06/08 16:08:44;;;;;;;;;;;;;;;;;;4994374;28;19924;-26
2022/06/08 16:11:10;;;;;;;;;;;;;;;;;;4995783;28;19910;-26
2022/06/08 16:13:36;;;;;;;;;;;;;;;;;;4995253;28;20340;-26
2022/06/08 16:16:03;;;;;;;;;;;;;;;;;;4995557;28;19920;-27
2022/06/08 16:18:29;;;;;;;;;;;;;;;;;;4995231;28;19997;-26
2022/06/08 16:20:55;;;;;;;;;;;;;;;;;;4995215;28;20209;-26
2022/06/08 16:23:21;;;;;;;;;;;;;;;;;;4995363;28;19924;-26
2022/06/08 16:25:47;;;;;;;;;;;;;;;;;;4996577;28;19921;-26
2022/06/08 16:28:13;;;;;;;;;;;;;;;;;;4999001;28;19967;-27
2022/06/08 16:30:40;;;;;;;;;;;;;;;;;;4999009;28;20369;-27
2022/06/08 16:33:06;;;;;;;;;;;;;;;;;;4998863;28;20407;-26
2022/06/08 16:35:32;;;;;;;;;;;;;;;;;;4999414;28;20283;-26
2022/06/08 16:38:01;;;;;;;;;;;;;;;;;;4998834;28;19918;-26
2022/06/08 16:40:27;;;;;;;;;;;;;;;;;;4998975;28;19914;-26
2022/06/08 16:42:53;;;;;;;;;;;;;;;;;;4997999;28;19910;-26
2022/06/08 16:45:19;;;;;;;;;;;;;;;;;;4999160;28;19914;-26
2022/06/08 16:47:45;;;;;;;;;;;;;;;;;;4999029;28;19918;-26
2022/06/08 16:50:11;;;;;;;;;;;;;;;;;;4998567;28;20316;-27
2022/06/08 16:52:37;;;;;;;;;;;;;;;;;;4998658;28;19914;-26
2022/06/08 16:55:03;;;;;;;;;;;;;;;;;;4998525;28;19918;-26
2022/06/08 17:00:15;;;;;;;;;;;;;;;;;;4998564;28;19976;-26
2022/06/08 17:02:41;;;;;;;;;;;;;;;;;;4998489;28;19957;-26
2022/06/08 17:05:07;;;;;;;;;;;;;;;;;;4998762;28;20238;-26
2022/06/08 17:07:33;;;;;;;;;;;;;;;;;;4998359;28;19910;-26
2022/06/08 17:09:59;;;;;;;;;;;;;;;;;;4998444;28;20393;-26
2022/06/08 17:12:25;;;;;;;;;;;;;;;;;;4998265;28;19913;-26
2022/06/08 17:14:51;;;;;;;;;;;;;;;;;;4998557;28;20033;-26